createdAt,value
2019-06-20T00:00:35.824Z,82.10
2019-06-20T00:03:04.835Z,82.30
2019-06-20T00:05:33.758Z,82.30
2019-06-20T00:08:02.831Z,82.00
2019-06-20T00:10:31.739Z,82.00
2019-06-20T00:13:01.077Z,81.90
2019-06-20T00:15:30.210Z,82.30
2019-06-20T00:17:59.152Z,82.20
2019-06-20T00:20:28.106Z,82.20
2019-06-20T00:22:57.210Z,82.00
2019-06-20T00:25:26.137Z,82.20
2019-06-20T00:27:54.932Z,82.20
2019-06-20T00:30:23.846Z,82.00
2019-06-20T00:32:52.678Z,82.00
2019-06-20T00:35:21.593Z,81.90
2019-06-20T00:37:50.414Z,82.30
2019-06-20T00:40:20.891Z,82.20
2019-06-20T00:42:49.819Z,82.10
2019-06-20T00:45:19.119Z,82.20
2019-06-20T00:47:47.977Z,81.70
2019-06-20T00:50:17.624Z,81.70
2019-06-20T00:52:46.543Z,81.60
2019-06-20T00:55:15.740Z,81.70
2019-06-20T00:57:44.720Z,82.80
2019-06-20T01:00:14.790Z,82.10
2019-06-20T01:02:43.792Z,82.20
2019-06-20T01:05:12.978Z,82.10
2019-06-20T01:07:41.814Z,82.00
2019-06-20T01:10:11.302Z,82.10
2019-06-20T01:12:40.305Z,82.10
2019-06-20T01:15:10.271Z,81.80
2019-06-20T01:17:39.486Z,81.50
2019-06-20T01:20:09.317Z,81.90
2019-06-20T01:22:38.494Z,81.80
2019-06-20T01:25:07.818Z,82.10
2019-06-20T01:27:37.143Z,81.80
2019-06-20T01:30:07.044Z,81.80
2019-06-20T01:32:35.924Z,81.80
2019-06-20T01:35:05.628Z,81.60
2019-06-20T01:37:34.638Z,81.50
2019-06-20T01:40:03.735Z,81.80
2019-06-20T01:42:32.590Z,81.80
2019-06-20T01:45:01.587Z,81.80
2019-06-20T01:47:30.522Z,82.20
2019-06-20T01:49:59.398Z,83.10
2019-06-20T01:52:28.285Z,83.40
2019-06-20T01:54:57.320Z,83.30
2019-06-20T01:57:26.323Z,83.20
2019-06-20T01:59:55.227Z,83.40
2019-06-20T02:02:24.130Z,83.20
2019-06-20T02:04:53.035Z,83.30
2019-06-20T02:07:21.926Z,83.30
2019-06-20T02:09:50.751Z,83.10
2019-06-20T02:12:19.813Z,83.10
2019-06-20T02:14:48.650Z,83.10
2019-06-20T02:17:17.755Z,83.00
2019-06-20T02:19:46.571Z,83.00
2019-06-20T02:22:15.586Z,83.30
2019-06-20T02:24:44.629Z,83.20
2019-06-20T02:27:13.462Z,83.20
2019-06-20T02:29:42.298Z,83.00
2019-06-20T02:32:11.131Z,83.00
2019-06-20T02:34:40.008Z,82.80
2019-06-20T02:37:09.005Z,83.10
2019-06-20T02:39:37.833Z,84.40
2019-06-20T02:42:06.788Z,84.50
2019-06-20T02:44:35.748Z,84.30
2019-06-20T02:47:04.939Z,83.80
2019-06-20T02:49:33.783Z,83.40
2019-06-20T02:52:03.298Z,83.70
2019-06-20T02:54:32.290Z,83.40
2019-06-20T02:57:01.188Z,83.50
2019-06-20T02:59:30.100Z,83.50
2019-06-20T03:01:59.009Z,83.70
2019-06-20T03:04:27.859Z,83.90
2019-06-20T03:06:56.790Z,83.70
2019-06-20T03:09:25.655Z,84.00
2019-06-20T03:11:54.639Z,83.70
2019-06-20T03:14:23.574Z,83.90
2019-06-20T03:16:52.576Z,84.00
2019-06-20T03:19:21.450Z,84.00
2019-06-20T03:21:50.372Z,84.70
2019-06-20T03:24:19.291Z,84.20
2019-06-20T03:26:48.197Z,84.00
2019-06-20T03:29:17.115Z,84.70
2019-06-20T03:31:46.070Z,84.60
2019-06-20T03:34:14.961Z,84.90
2019-06-20T03:36:43.821Z,84.50
2019-06-20T03:39:12.687Z,84.70
2019-06-20T03:41:41.655Z,84.80
2019-06-20T03:44:10.492Z,84.80
2019-06-20T03:46:39.393Z,85.00
2019-06-20T03:49:08.285Z,84.90
2019-06-20T03:51:37.229Z,84.80
2019-06-20T03:54:06.113Z,84.70
2019-06-20T03:56:35.004Z,85.60
2019-06-20T03:59:03.856Z,84.90
2019-06-20T04:01:32.732Z,84.80
2019-06-20T04:04:01.650Z,85.00
2019-06-20T04:06:30.629Z,84.80
2019-06-20T04:08:59.504Z,84.80
2019-06-20T04:11:28.304Z,85.30
2019-06-20T04:13:57.131Z,85.30
2019-06-20T04:16:26.106Z,85.60
2019-06-20T04:18:54.942Z,85.80
2019-06-20T04:21:23.842Z,86.60
2019-06-20T04:23:52.838Z,86.40
2019-06-20T04:26:21.683Z,86.20
2019-06-20T04:28:50.561Z,86.10
2019-06-20T04:31:19.428Z,85.90
2019-06-20T04:33:48.287Z,85.90
2019-06-20T04:36:17.402Z,85.70
2019-06-20T04:38:46.265Z,85.50
2019-06-20T04:41:15.124Z,85.60
2019-06-20T04:43:43.936Z,85.40
2019-06-20T04:46:40.884Z,85.30
2019-06-20T04:49:09.808Z,85.40
2019-06-20T04:51:38.726Z,85.20
2019-06-20T04:54:07.709Z,85.40
2019-06-20T04:56:36.528Z,85.60
2019-06-20T04:59:05.461Z,85.60
2019-06-20T05:01:34.358Z,85.70
2019-06-20T05:04:03.219Z,85.80
2019-06-20T05:06:32.107Z,85.60
2019-06-20T05:09:00.980Z,85.70
2019-06-20T05:11:29.875Z,85.70
2019-06-20T05:13:58.786Z,86.60
2019-06-20T05:16:27.602Z,86.80
2019-06-20T05:18:56.453Z,86.80
2019-06-20T05:21:25.390Z,87.40
2019-06-20T05:23:54.360Z,86.50
2019-06-20T05:26:23.254Z,86.30
2019-06-20T05:28:52.231Z,85.90
2019-06-20T05:31:21.084Z,86.20
2019-06-20T05:33:49.921Z,86.30
2019-06-20T05:36:18.839Z,86.30
2019-06-20T05:38:47.745Z,86.30
2019-06-20T05:41:16.746Z,86.80
2019-06-20T05:43:45.660Z,87.00
2019-06-20T05:46:14.584Z,87.00
2019-06-20T05:48:43.458Z,87.10
2019-06-20T05:51:12.434Z,87.20
2019-06-20T05:53:41.277Z,87.20
2019-06-20T05:56:10.169Z,87.20
2019-06-20T05:58:39.004Z,87.20
2019-06-20T06:01:08.078Z,87.70
2019-06-20T06:03:37.030Z,86.80
2019-06-20T06:06:05.921Z,87.00
2019-06-20T06:08:34.756Z,87.50
2019-06-20T06:11:03.951Z,87.60
2019-06-20T06:13:32.762Z,87.40
2019-06-20T06:16:01.665Z,87.10
2019-06-20T06:18:30.587Z,87.30
2019-06-20T06:20:59.526Z,86.90
2019-06-20T06:23:28.430Z,86.70
2019-06-20T06:25:58.305Z,86.80
2019-06-20T06:28:27.153Z,87.00
2019-06-20T06:30:56.150Z,87.30
2019-06-20T06:33:24.985Z,87.40
2019-06-20T06:35:54.002Z,87.30
2019-06-20T06:38:22.832Z,87.50
2019-06-20T06:40:51.734Z,87.90
2019-06-20T06:43:20.619Z,87.10
2019-06-20T06:45:49.503Z,86.70
2019-06-20T06:48:18.377Z,86.70
2019-06-20T06:50:47.351Z,86.70
2019-06-20T06:53:16.363Z,86.80
2019-06-20T06:55:45.238Z,86.90
2019-06-20T06:58:14.184Z,86.40
2019-06-20T07:00:43.057Z,85.50
2019-06-20T07:03:11.939Z,84.90
2019-06-20T07:05:40.878Z,84.30
2019-06-20T07:08:09.767Z,84.00
2019-06-20T07:10:38.769Z,84.00
2019-06-20T07:13:07.783Z,84.60
2019-06-20T07:15:36.830Z,85.10
2019-06-20T07:18:05.869Z,85.00
2019-06-20T07:20:34.804Z,84.50
2019-06-20T07:23:03.659Z,84.20
2019-06-20T07:25:32.479Z,83.80
2019-06-20T07:28:01.387Z,84.10
2019-06-20T07:30:30.532Z,84.40
2019-06-20T07:32:59.484Z,84.80
2019-06-20T07:35:28.380Z,84.60
2019-06-20T07:37:58.087Z,85.60
2019-06-20T07:40:26.999Z,85.00
2019-06-20T07:42:55.810Z,85.00
2019-06-20T07:45:27.827Z,83.60
2019-06-20T07:47:56.797Z,83.30
2019-06-20T07:50:25.815Z,82.80
2019-06-20T07:53:01.999Z,82.60
2019-06-20T07:55:25.506Z,82.00
2019-06-20T07:57:54.329Z,81.70
2019-06-20T08:00:25.337Z,82.20
2019-06-20T08:02:54.375Z,81.00
2019-06-20T08:05:23.431Z,80.90
2019-06-20T08:07:52.545Z,80.10
2019-06-20T08:10:22.294Z,78.80
2019-06-20T08:12:51.341Z,78.40
2019-06-20T08:15:20.464Z,78.60
2019-06-20T08:17:49.414Z,78.30
2019-06-20T08:20:20.307Z,79.00
2019-06-20T08:22:49.210Z,78.60
2019-06-20T08:25:18.402Z,78.40
2019-06-20T08:27:50.634Z,78.20
2019-06-20T08:30:21.610Z,77.70
2019-06-20T08:32:50.902Z,78.10
2019-06-20T08:35:22.890Z,78.00
2019-06-20T08:37:52.728Z,77.10
2019-06-20T08:40:22.443Z,77.00
2019-06-20T08:42:51.505Z,76.80
2019-06-20T08:45:22.364Z,76.50
2019-06-20T08:47:51.372Z,76.10
2019-06-20T08:50:20.447Z,76.40
2019-06-20T08:53:08.688Z,76.00
2019-06-20T08:55:37.680Z,73.10
2019-06-20T08:58:06.845Z,75.70
2019-06-20T09:00:37.571Z,75.60
2019-06-20T09:03:06.733Z,75.20
2019-06-20T09:05:35.840Z,74.80
2019-06-20T09:08:05.593Z,74.80
2019-06-20T09:10:37.820Z,75.20
2019-06-20T09:13:08.004Z,74.30
2019-06-20T09:15:37.206Z,74.20
2019-06-20T09:18:06.593Z,74.10
2019-06-20T09:20:36.475Z,74.00
2019-06-20T09:23:05.631Z,73.50
2019-06-20T09:25:34.737Z,73.60
2019-06-20T09:28:04.045Z,73.80
2019-06-20T09:30:33.820Z,74.40
2019-06-20T09:33:02.976Z,74.40
2019-06-20T09:35:33.021Z,74.40
2019-06-20T09:38:03.323Z,74.20
2019-06-20T09:40:32.556Z,73.70
2019-06-20T09:43:02.759Z,73.50
2019-06-20T09:45:32.047Z,73.50
2019-06-20T09:48:02.534Z,73.30
2019-06-20T09:50:31.804Z,73.70
2019-06-20T09:53:00.772Z,73.60
2019-06-20T09:55:29.753Z,73.80
2019-06-20T09:57:58.699Z,74.00
2019-06-20T10:00:28.856Z,74.20
2019-06-20T10:02:58.015Z,74.10
2019-06-20T10:05:27.456Z,74.70
2019-06-20T10:07:56.663Z,74.30
2019-06-20T10:10:31.520Z,74.40
2019-06-20T10:13:01.097Z,75.00
2019-06-20T10:15:32.288Z,75.40
2019-06-20T10:18:01.239Z,75.70
2019-06-20T10:20:30.933Z,75.60
2019-06-20T10:22:59.969Z,75.40
2019-06-20T10:25:29.002Z,76.40
2019-06-20T10:27:58.077Z,75.80
2019-06-20T10:30:27.814Z,75.80
2019-06-20T10:32:57.707Z,75.40
2019-06-20T10:35:26.942Z,74.70
2019-06-20T10:37:57.208Z,74.50
2019-06-20T10:40:26.589Z,74.00
2019-06-20T10:42:56.653Z,73.20
2019-06-20T10:45:26.927Z,72.90
2019-06-20T10:47:56.019Z,72.50
2019-06-20T10:50:25.122Z,71.90
2019-06-20T10:52:54.139Z,72.00
2019-06-20T10:55:23.308Z,71.00
2019-06-20T10:57:52.428Z,71.30
2019-06-20T11:00:30.944Z,70.40
2019-06-20T11:02:54.412Z,70.90
2019-06-20T11:05:23.664Z,70.90
2019-06-20T11:07:52.742Z,70.90
2019-06-20T11:10:22.291Z,70.00
2019-06-20T11:12:55.678Z,69.80
2019-06-20T11:15:22.371Z,69.30
2019-06-20T11:17:51.445Z,69.40
2019-06-20T11:20:20.744Z,68.90
2019-06-20T11:22:49.780Z,67.40
2019-06-20T11:25:20.349Z,68.50
2019-06-20T11:27:49.342Z,69.60
2019-06-20T11:30:19.667Z,69.70
2019-06-20T11:32:48.876Z,69.50
2019-06-20T11:35:17.878Z,68.30
2019-06-20T11:37:47.346Z,68.80
2019-06-20T11:40:17.812Z,68.20
2019-06-20T11:42:47.028Z,67.90
2019-06-20T11:45:16.802Z,67.80
2019-06-20T11:47:47.183Z,67.90
2019-06-20T11:50:17.995Z,67.60
2019-06-20T11:52:46.969Z,67.20
2019-06-20T11:55:16.402Z,66.30
2019-06-20T11:57:45.380Z,65.70
2019-06-20T12:00:14.745Z,65.90
2019-06-20T12:02:44.170Z,65.80
2019-06-20T12:05:14.106Z,66.60
2019-06-20T12:07:43.642Z,66.70
2019-06-20T12:10:15.576Z,66.70
2019-06-20T12:12:44.840Z,66.00
2019-06-20T12:15:16.899Z,66.10
2019-06-20T12:17:47.199Z,66.30
2019-06-20T12:20:17.071Z,66.10
2019-06-20T12:22:46.638Z,66.10
2019-06-20T12:25:16.479Z,65.90
2019-06-20T12:27:45.698Z,65.90
2019-06-20T12:30:15.293Z,65.40
2019-06-20T12:32:44.750Z,66.10
2019-06-20T12:35:14.623Z,65.40
2019-06-20T12:37:45.050Z,64.40
2019-06-20T12:40:16.261Z,64.30
2019-06-20T12:42:46.634Z,63.60
2019-06-20T12:45:17.566Z,63.50
2019-06-20T12:47:46.502Z,63.20
2019-06-20T12:50:16.091Z,62.90
2019-06-20T12:52:45.742Z,62.80
2019-06-20T12:55:15.205Z,63.50
2019-06-20T12:57:44.318Z,63.10
2019-06-20T13:00:14.458Z,63.60
2019-06-20T13:02:43.840Z,63.20
2019-06-20T13:05:15.910Z,63.90
2019-06-20T13:07:46.269Z,63.00
2019-06-20T13:10:15.609Z,62.40
2019-06-20T13:12:44.513Z,62.00
2019-06-20T13:15:14.089Z,63.10
2019-06-20T13:17:43.707Z,63.10
2019-06-20T13:20:15.563Z,62.70
2019-06-20T13:22:44.776Z,62.50
2019-06-20T13:25:13.982Z,62.10
2019-06-20T13:27:43.391Z,62.60
2019-06-20T13:30:14.441Z,62.00
2019-06-20T13:32:45.226Z,62.10
2019-06-20T13:35:15.913Z,61.30
2019-06-20T13:37:45.710Z,61.50
2019-06-20T13:40:16.815Z,61.10
2019-06-20T13:42:46.152Z,61.20
2019-06-20T13:45:23.208Z,60.90
2019-06-20T13:47:52.223Z,59.20
2019-06-20T13:50:21.740Z,60.20
2019-06-20T13:52:51.237Z,60.40
2019-06-20T13:55:20.420Z,60.40
2019-06-20T13:57:49.557Z,59.90
2019-06-20T14:00:20.859Z,59.10
2019-06-20T14:02:51.509Z,59.80
2019-06-20T14:05:21.116Z,58.90
2019-06-20T14:07:53.504Z,58.90
2019-06-20T14:10:21.830Z,58.10
2019-06-20T14:12:50.982Z,58.00
2019-06-20T14:15:20.333Z,57.40
2019-06-20T14:17:49.882Z,57.30
2019-06-20T14:20:20.778Z,57.40
2019-06-20T14:22:49.800Z,56.90
2019-06-20T14:25:19.975Z,56.70
2019-06-20T14:27:49.428Z,54.80
2019-06-20T14:30:20.788Z,56.30
2019-06-20T14:32:51.274Z,54.80
2019-06-20T14:35:20.690Z,54.60
2019-06-20T14:37:51.645Z,54.50
2019-06-20T14:40:20.922Z,54.70
2019-06-20T14:42:50.365Z,54.20
2019-06-20T14:45:20.886Z,53.80
2019-06-20T14:47:52.273Z,54.40
2019-06-20T14:50:20.952Z,54.20
2019-06-20T14:52:50.135Z,54.00
2019-06-20T14:55:20.811Z,53.20
2019-06-20T14:57:50.488Z,53.60
2019-06-20T15:00:20.457Z,53.90
2019-06-20T15:02:53.114Z,52.90
2019-06-20T15:05:20.463Z,53.00
2019-06-20T15:07:51.492Z,53.40
2019-06-20T15:10:20.227Z,52.60
2019-06-20T15:12:50.251Z,52.50
2019-06-20T15:15:20.026Z,51.40
2019-06-20T15:17:50.261Z,51.30
2019-06-20T15:20:19.909Z,50.90
2019-06-20T15:22:49.341Z,49.50
2019-06-20T15:25:19.657Z,50.00
2019-06-20T15:27:50.256Z,50.00
2019-06-20T15:30:19.654Z,49.50
2019-06-20T15:32:59.212Z,50.30
2019-06-20T15:35:19.323Z,50.30
2019-06-20T15:37:49.692Z,50.60
2019-06-20T15:40:19.146Z,50.90
2019-06-20T15:42:49.566Z,50.60
2019-06-20T15:45:19.349Z,49.60
2019-06-20T15:47:48.459Z,49.50
2019-06-20T15:50:18.047Z,50.00
2019-06-20T15:52:47.041Z,49.60
2019-06-20T15:55:19.524Z,49.70
2019-06-20T15:57:48.413Z,49.60
2019-06-20T16:00:19.057Z,49.60
2019-06-20T16:02:47.970Z,49.50
2019-06-20T16:05:16.939Z,49.20
2019-06-20T16:07:45.802Z,50.10
2019-06-20T16:10:16.085Z,49.90
2019-06-20T16:12:45.006Z,48.90
2019-06-20T16:15:20.450Z,48.70
2019-06-20T16:17:49.352Z,48.70
2019-06-20T16:20:18.371Z,48.00
2019-06-20T16:22:47.455Z,48.40
2019-06-20T16:25:16.728Z,48.10
2019-06-20T16:27:45.673Z,47.10
2019-06-20T16:30:15.472Z,45.40
2019-06-20T16:32:44.389Z,44.80
2019-06-20T16:35:13.502Z,44.50
2019-06-20T16:37:42.395Z,44.90
2019-06-20T16:40:11.785Z,43.70
2019-06-20T16:42:40.719Z,43.50
2019-06-20T16:45:10.704Z,44.10
2019-06-20T16:47:39.708Z,44.90
2019-06-20T16:50:09.645Z,44.70
2019-06-20T16:52:38.546Z,44.80
2019-06-20T16:55:08.272Z,45.10
2019-06-20T16:57:37.477Z,45.30
2019-06-20T17:00:08.099Z,45.30
2019-06-20T17:02:37.045Z,45.80
2019-06-20T17:05:06.425Z,45.90
2019-06-20T17:07:35.651Z,46.10
2019-06-20T17:10:05.390Z,46.10
2019-06-20T17:12:34.385Z,47.60
2019-06-20T17:15:03.442Z,47.70
2019-06-20T17:17:32.444Z,47.90
2019-06-20T17:20:02.025Z,48.20
2019-06-20T17:22:31.043Z,48.50
2019-06-20T17:24:59.953Z,48.70
2019-06-20T17:27:28.927Z,48.90
2019-06-20T17:29:57.768Z,49.50
2019-06-20T17:32:26.842Z,49.90
2019-06-20T17:34:55.759Z,50.10
2019-06-20T17:37:24.713Z,50.40
2019-06-20T17:39:53.688Z,50.60
2019-06-20T17:42:22.659Z,50.90
2019-06-20T17:44:51.555Z,51.00
2019-06-20T17:47:20.548Z,52.10
2019-06-20T17:49:49.539Z,52.20
2019-06-20T17:52:18.321Z,52.50
2019-06-20T17:54:47.122Z,52.30
2019-06-20T17:57:15.945Z,52.60
2019-06-20T17:59:44.902Z,52.20
2019-06-20T18:02:13.726Z,52.40
2019-06-20T18:04:42.575Z,52.50
2019-06-20T18:07:11.464Z,52.50
2019-06-20T18:09:40.371Z,52.10
2019-06-20T18:12:09.273Z,52.20
2019-06-20T18:14:38.170Z,52.20
2019-06-20T18:17:07.142Z,52.30
2019-06-20T18:19:36.006Z,52.10
2019-06-20T18:22:04.938Z,52.10
2019-06-20T18:24:33.836Z,52.20
2019-06-20T18:27:02.653Z,52.50
2019-06-20T18:29:31.567Z,52.50
2019-06-20T18:32:00.560Z,52.50
2019-06-20T18:34:30.512Z,52.30
2019-06-20T18:36:59.550Z,52.60
2019-06-20T18:39:28.360Z,52.10
2019-06-20T18:41:57.283Z,52.10
2019-06-20T18:44:26.151Z,52.50
2019-06-20T18:46:55.129Z,52.60
2019-06-20T18:49:24.030Z,52.60
2019-06-20T18:51:52.954Z,52.80
2019-06-20T18:54:21.991Z,53.10
2019-06-20T18:56:51.039Z,53.40
2019-06-20T18:59:19.962Z,53.50
2019-06-20T19:01:48.903Z,53.50
2019-06-20T19:04:17.850Z,54.70
2019-06-20T19:06:46.733Z,54.00
2019-06-20T19:09:15.629Z,54.30
2019-06-20T19:11:44.647Z,54.00
2019-06-20T19:14:13.513Z,54.40
2019-06-20T19:16:42.398Z,54.20
2019-06-20T19:19:11.301Z,54.70
2019-06-20T19:21:40.214Z,54.30
2019-06-20T19:24:09.096Z,54.60
2019-06-20T19:26:38.079Z,54.50
2019-06-20T19:29:07.028Z,54.60
2019-06-20T19:31:35.882Z,54.90
2019-06-20T19:34:04.765Z,55.00
2019-06-20T19:36:33.628Z,54.90
2019-06-20T19:39:02.977Z,54.70
2019-06-20T19:41:31.882Z,54.50
2019-06-20T19:44:00.796Z,54.50
2019-06-20T19:46:29.674Z,55.10
2019-06-20T19:48:58.649Z,54.50
2019-06-20T19:51:27.673Z,54.40
2019-06-20T19:53:56.791Z,54.60
2019-06-20T19:56:25.839Z,55.00
2019-06-20T19:58:54.857Z,55.30
2019-06-20T20:01:23.779Z,54.80
2019-06-20T20:03:52.901Z,54.90
2019-06-20T20:06:21.849Z,54.70
2019-06-20T20:08:50.920Z,54.90
2019-06-20T20:11:19.884Z,55.10
2019-06-20T20:13:48.681Z,55.10
2019-06-20T20:16:17.860Z,55.00
2019-06-20T20:18:46.837Z,55.30
2019-06-20T20:21:15.671Z,55.60
2019-06-20T20:23:44.468Z,56.30
2019-06-20T20:26:13.275Z,56.50
2019-06-20T20:28:42.176Z,56.40
2019-06-20T20:31:11.094Z,56.70
2019-06-20T20:33:39.923Z,56.70
2019-06-20T20:36:23.762Z,56.90
2019-06-20T20:38:39.801Z,56.90
2019-06-20T20:41:08.613Z,57.10
2019-06-20T20:43:37.456Z,57.00
2019-06-20T20:46:06.651Z,57.20
2019-06-20T20:48:35.609Z,57.10
2019-06-20T20:51:04.563Z,57.20
2019-06-20T20:53:33.832Z,57.40
2019-06-20T20:56:02.815Z,57.30
2019-06-20T20:58:31.824Z,57.30
2019-06-20T21:01:19.709Z,57.40
2019-06-20T21:03:48.626Z,57.60
2019-06-20T21:06:17.603Z,57.30
2019-06-20T21:08:46.553Z,57.50
2019-06-20T21:11:15.399Z,57.70
2019-06-20T21:13:44.279Z,57.90
2019-06-20T21:16:13.103Z,58.00
2019-06-20T21:18:43.561Z,57.90
2019-06-20T21:21:12.459Z,57.70
2019-06-20T21:23:41.815Z,57.90
2019-06-20T21:26:10.736Z,58.30
2019-06-20T21:28:39.670Z,58.40
2019-06-20T21:31:08.544Z,58.40
2019-06-20T21:33:37.471Z,58.30
2019-06-20T21:36:08.732Z,58.40
2019-06-20T21:38:36.955Z,58.30
2019-06-20T21:41:05.859Z,58.60
2019-06-20T21:43:34.876Z,58.70
2019-06-20T21:46:06.670Z,59.70
2019-06-20T21:48:34.382Z,59.70
2019-06-20T21:51:03.314Z,59.90
2019-06-20T21:53:32.392Z,60.00
2019-06-20T21:56:01.200Z,60.30
2019-06-20T21:58:30.156Z,60.40
2019-06-20T22:01:00.521Z,60.30
2019-06-20T22:03:29.409Z,60.70
2019-06-20T22:05:58.289Z,60.80
2019-06-20T22:08:27.209Z,60.90
2019-06-20T22:10:56.091Z,61.10
2019-06-20T22:13:24.938Z,61.40
2019-06-20T22:15:53.813Z,61.50
2019-06-20T22:18:22.647Z,61.40
2019-06-20T22:20:51.659Z,61.40
2019-06-20T22:23:20.578Z,61.70
2019-06-20T22:25:49.569Z,62.40
2019-06-20T22:28:18.552Z,62.50
2019-06-20T22:30:51.883Z,62.40
2019-06-20T22:33:21.149Z,62.50
2019-06-20T22:35:50.144Z,62.40
2019-06-20T22:38:19.049Z,62.30
2019-06-20T22:40:47.944Z,62.30
2019-06-20T22:43:16.921Z,62.40
2019-06-20T22:45:45.977Z,62.60
2019-06-20T22:48:14.904Z,62.70
2019-06-20T22:50:44.222Z,62.70
2019-06-20T22:53:13.168Z,62.90
2019-06-20T22:55:42.036Z,62.90
2019-06-20T22:58:11.059Z,62.80
2019-06-20T23:00:40.722Z,62.90
2019-06-20T23:03:09.708Z,63.00
2019-06-20T23:05:38.703Z,63.20
2019-06-20T23:08:07.831Z,63.40
2019-06-20T23:10:36.650Z,63.40
2019-06-20T23:13:05.716Z,63.20
2019-06-20T23:15:34.636Z,64.00
2019-06-20T23:18:03.703Z,63.90
2019-06-20T23:20:32.645Z,64.00
2019-06-20T23:23:01.577Z,63.90
2019-06-20T23:25:30.659Z,63.90
2019-06-20T23:27:59.634Z,63.90
2019-06-20T23:30:28.722Z,64.00
2019-06-20T23:32:57.569Z,63.90
2019-06-20T23:35:26.548Z,64.10
2019-06-20T23:37:55.403Z,64.10
2019-06-20T23:40:24.321Z,64.30
2019-06-20T23:42:53.226Z,64.20
2019-06-20T23:45:23.299Z,64.30
2019-06-20T23:47:52.218Z,64.40
2019-06-20T23:50:21.340Z,64.40
2019-06-20T23:52:55.970Z,64.60
2019-06-20T23:55:24.844Z,64.50
2019-06-20T23:57:53.856Z,64.60
